createdAt,value
2022-11-08T00:02:14.620Z,10.00
2022-11-08T00:05:21.208Z,10.00
2022-11-08T00:08:27.567Z,10.00
2022-11-08T00:11:33.681Z,10.10
2022-11-08T00:14:23.702Z,10.10
2022-11-08T00:17:12.405Z,10.10
2022-11-08T00:20:01.088Z,10.10
2022-11-08T00:22:49.935Z,10.10
2022-11-08T00:25:38.696Z,10.00
2022-11-08T00:28:27.585Z,10.00
2022-11-08T00:31:17.683Z,10.00
2022-11-08T00:34:06.348Z,10.00
2022-11-08T00:36:55.898Z,10.00
2022-11-08T00:39:44.579Z,10.10
2022-11-08T00:42:33.220Z,10.10
2022-11-08T00:45:21.823Z,10.00
2022-11-08T00:48:12.035Z,10.10
2022-11-08T00:51:03.209Z,10.10
2022-11-08T00:53:51.937Z,10.10
2022-11-08T00:56:40.586Z,10.20
2022-11-08T00:59:29.247Z,10.10
2022-11-08T01:02:18.357Z,10.10
2022-11-08T01:05:09.107Z,10.10
2022-11-08T01:07:57.669Z,10.10
2022-11-08T01:10:48.533Z,10.10
2022-11-08T01:13:37.524Z,10.10
2022-11-08T01:16:28.115Z,10.20
2022-11-08T01:19:16.778Z,10.10
2022-11-08T01:22:06.818Z,10.10
2022-11-08T01:24:55.562Z,10.00
2022-11-08T01:27:44.169Z,10.10
2022-11-08T01:30:33.045Z,10.10
2022-11-08T01:33:21.708Z,10.20
2022-11-08T01:36:11.892Z,10.20
2022-11-08T01:39:01.986Z,10.20
2022-11-08T01:41:50.875Z,10.20
2022-11-08T01:44:58.537Z,10.20
2022-11-08T01:47:47.147Z,10.30
2022-11-08T01:50:35.873Z,10.30
2022-11-08T01:53:24.799Z,10.30
2022-11-08T01:56:16.603Z,10.30
2022-11-08T01:59:09.298Z,10.40
2022-11-08T02:01:58.594Z,10.30
2022-11-08T02:04:47.381Z,10.30
2022-11-08T02:07:36.445Z,10.30
2022-11-08T02:10:28.110Z,10.30
2022-11-08T02:13:20.831Z,10.30
2022-11-08T02:16:13.413Z,10.30
2022-11-08T02:19:02.324Z,10.30
2022-11-08T02:21:56.663Z,10.30
2022-11-08T02:24:47.245Z,10.30
2022-11-08T02:27:35.885Z,10.40
2022-11-08T02:30:24.814Z,10.30
2022-11-08T02:33:17.730Z,10.30
2022-11-08T02:36:07.825Z,10.30
2022-11-08T02:38:58.945Z,10.30
2022-11-08T02:41:49.451Z,10.40
2022-11-08T02:44:38.064Z,10.30
2022-11-08T02:47:26.661Z,10.30
2022-11-08T02:50:15.301Z,10.30
2022-11-08T02:53:04.508Z,10.40
2022-11-08T02:55:53.364Z,10.40
2022-11-08T02:58:43.379Z,10.40
2022-11-08T03:01:32.099Z,10.50
2022-11-08T03:04:20.764Z,10.40
2022-11-08T03:07:09.486Z,10.40
2022-11-08T03:09:58.153Z,10.40
2022-11-08T03:12:46.822Z,10.40
2022-11-08T03:15:36.866Z,10.40
2022-11-08T03:18:25.750Z,10.40
2022-11-08T03:21:14.384Z,10.40
2022-11-08T03:24:03.000Z,10.40
2022-11-08T03:26:51.572Z,10.40
2022-11-08T03:29:40.270Z,10.30
2022-11-08T03:32:30.297Z,10.30
2022-11-08T03:35:19.058Z,10.30
2022-11-08T03:38:08.050Z,10.20
2022-11-08T03:40:56.608Z,10.30
2022-11-08T03:43:45.270Z,10.30
2022-11-08T03:46:34.272Z,10.30
2022-11-08T03:49:24.512Z,10.30
2022-11-08T03:52:13.168Z,10.30
2022-11-08T03:55:01.789Z,10.40
2022-11-08T03:57:51.611Z,10.30
2022-11-08T04:00:40.576Z,10.40
2022-11-08T04:03:29.368Z,10.30
2022-11-08T04:06:19.323Z,10.30
2022-11-08T04:09:08.232Z,10.30
2022-11-08T04:12:14.086Z,10.20
2022-11-08T04:15:19.022Z,10.20
2022-11-08T04:18:25.381Z,10.30
2022-11-08T04:21:22.988Z,10.30
2022-11-08T04:24:11.735Z,10.30
2022-11-08T04:27:01.539Z,10.30
2022-11-08T04:29:50.158Z,10.20
2022-11-08T04:32:38.716Z,10.30
2022-11-08T04:35:27.540Z,10.20
2022-11-08T04:38:18.555Z,10.20
2022-11-08T04:41:09.000Z,10.30
2022-11-08T04:43:58.226Z,10.20
2022-11-08T04:46:46.894Z,10.30
2022-11-08T04:49:35.704Z,10.20
2022-11-08T04:52:24.307Z,10.20
2022-11-08T04:55:14.468Z,10.20
2022-11-08T04:58:03.113Z,10.20
2022-11-08T05:00:51.791Z,10.20
2022-11-08T05:03:40.441Z,10.10
2022-11-08T05:06:32.566Z,10.20
2022-11-08T05:09:21.180Z,10.10
2022-11-08T05:12:11.138Z,10.10
2022-11-08T05:14:59.812Z,10.10
2022-11-08T05:17:48.494Z,10.00
2022-11-08T05:20:54.644Z,10.00
2022-11-08T05:23:43.763Z,10.00
2022-11-08T05:26:34.331Z,10.00
2022-11-08T05:29:24.560Z,10.00
2022-11-08T05:32:13.172Z,10.00
2022-11-08T05:35:01.897Z,10.00
2022-11-08T05:37:50.980Z,9.90
2022-11-08T05:40:39.998Z,9.80
2022-11-08T05:43:28.706Z,9.80
2022-11-08T05:46:20.139Z,9.80
2022-11-08T05:49:09.106Z,9.80
2022-11-08T05:51:57.727Z,9.70
2022-11-08T05:54:46.320Z,9.70
2022-11-08T05:57:34.960Z,9.70
2022-11-08T06:00:23.978Z,9.60
2022-11-08T06:03:14.041Z,9.60
2022-11-08T06:06:03.653Z,9.60
2022-11-08T06:08:54.002Z,9.60
2022-11-08T06:11:43.472Z,9.70
2022-11-08T06:14:32.221Z,9.60
2022-11-08T06:17:22.210Z,9.70
2022-11-08T06:20:15.194Z,9.70
2022-11-08T06:23:03.782Z,9.70
2022-11-08T06:25:52.474Z,9.70
2022-11-08T06:28:41.108Z,9.70
2022-11-08T06:31:30.188Z,9.80
2022-11-08T06:34:18.982Z,9.80
2022-11-08T06:37:09.494Z,9.80
2022-11-08T06:39:58.986Z,9.90
2022-11-08T06:42:47.763Z,10.00
2022-11-08T06:45:38.972Z,10.10
2022-11-08T06:48:32.400Z,10.10
2022-11-08T06:51:24.280Z,10.20
2022-11-08T06:54:17.932Z,10.10
2022-11-08T06:57:06.781Z,10.20
2022-11-08T06:59:55.615Z,10.20
2022-11-08T07:02:44.853Z,10.10
2022-11-08T07:05:36.531Z,10.20
2022-11-08T07:08:25.278Z,10.20
2022-11-08T07:11:15.332Z,10.20
2022-11-08T07:14:03.956Z,10.20
2022-11-08T07:16:52.626Z,10.30
2022-11-08T07:19:41.871Z,10.40
2022-11-08T07:22:30.516Z,10.40
2022-11-08T07:25:19.290Z,10.50
2022-11-08T07:28:15.853Z,10.50
2022-11-08T07:31:06.183Z,10.50
2022-11-08T07:33:54.900Z,10.60
2022-11-08T07:36:43.661Z,10.60
2022-11-08T07:39:32.243Z,10.70
2022-11-08T07:42:20.951Z,10.70
2022-11-08T07:45:24.631Z,10.80
2022-11-08T07:48:14.831Z,10.70
2022-11-08T07:51:03.403Z,10.70
2022-11-08T07:53:52.368Z,10.70
2022-11-08T07:56:41.014Z,10.80
2022-11-08T07:59:29.761Z,10.80
2022-11-08T08:02:19.846Z,10.90
2022-11-08T08:05:09.406Z,10.90
2022-11-08T08:07:59.251Z,11.00
2022-11-08T08:10:48.141Z,11.00
2022-11-08T08:13:36.973Z,11.10
2022-11-08T08:16:26.120Z,11.10
2022-11-08T08:19:16.157Z,11.10
2022-11-08T08:22:04.828Z,11.10
2022-11-08T08:24:53.576Z,11.00
2022-11-08T08:27:47.110Z,11.10
2022-11-08T08:30:35.857Z,11.20
2022-11-08T08:33:29.181Z,11.30
2022-11-08T08:36:19.919Z,11.30
2022-11-08T08:39:08.663Z,11.40
2022-11-08T08:41:57.339Z,11.40
2022-11-08T08:44:46.057Z,11.50
2022-11-08T08:47:34.749Z,11.60
2022-11-08T08:50:24.323Z,11.70
2022-11-08T08:53:14.739Z,11.70
2022-11-08T08:56:06.126Z,11.80
2022-11-08T09:02:03.634Z,12.00
2022-11-08T09:04:52.476Z,12.00
2022-11-08T09:07:41.870Z,12.00
2022-11-08T09:10:31.948Z,12.10
2022-11-08T09:13:20.822Z,12.10
2022-11-08T09:16:10.491Z,12.20
2022-11-08T09:18:59.127Z,12.20
2022-11-08T09:21:47.804Z,12.30
2022-11-08T09:24:36.544Z,12.40
2022-11-08T09:27:27.144Z,12.40
2022-11-08T09:30:16.143Z,12.50
2022-11-08T09:33:05.347Z,12.60
2022-11-08T09:35:54.464Z,12.60
2022-11-08T09:38:43.626Z,12.60
2022-11-08T09:42:09.816Z,12.60
2022-11-08T09:45:27.249Z,12.70
2022-11-08T09:48:23.171Z,12.80
2022-11-08T09:51:15.490Z,12.80
2022-11-08T09:54:08.742Z,12.80
2022-11-08T09:56:57.409Z,12.90
2022-11-08T09:59:49.658Z,13.00
2022-11-08T10:02:40.225Z,13.00
2022-11-08T10:05:35.067Z,13.10
2022-11-08T10:08:31.547Z,13.10
2022-11-08T10:11:39.938Z,13.10
2022-11-08T10:14:48.938Z,13.20
2022-11-08T10:18:00.574Z,13.30
2022-11-08T10:21:01.931Z,13.30
2022-11-08T10:23:58.814Z,13.30
2022-11-08T10:26:49.168Z,13.40
2022-11-08T10:29:43.146Z,13.50
2022-11-08T10:32:34.415Z,13.50
2022-11-08T10:35:32.960Z,13.60
2022-11-08T10:38:24.794Z,13.60
2022-11-08T10:41:19.402Z,13.60
2022-11-08T10:44:14.150Z,13.70
2022-11-08T10:47:05.011Z,13.80
2022-11-08T10:49:57.216Z,13.80
2022-11-08T10:52:54.904Z,13.80
2022-11-08T10:55:51.012Z,13.90
2022-11-08T10:58:41.680Z,13.90
2022-11-08T11:01:30.591Z,14.00
2022-11-08T11:04:28.444Z,14.00
2022-11-08T11:07:33.702Z,14.10
2022-11-08T11:10:27.880Z,14.10
2022-11-08T11:13:21.570Z,14.20
2022-11-08T11:16:15.381Z,14.20
2022-11-08T11:19:05.928Z,14.30
2022-11-08T11:21:58.629Z,14.30
2022-11-08T11:24:51.074Z,14.30
2022-11-08T11:27:44.112Z,14.40
2022-11-08T11:30:34.356Z,14.40
2022-11-08T11:33:25.966Z,14.40
2022-11-08T11:36:18.948Z,14.40
2022-11-08T11:39:13.483Z,14.40
2022-11-08T11:42:31.160Z,14.40
2022-11-08T11:45:22.928Z,14.40
2022-11-08T11:48:18.955Z,14.40
2022-11-08T11:51:11.633Z,14.50
2022-11-08T11:54:03.342Z,14.40
2022-11-08T11:56:58.066Z,14.50
2022-11-08T12:00:04.938Z,14.50
2022-11-08T12:03:32.898Z,14.50
2022-11-08T12:06:35.732Z,14.50
2022-11-08T12:09:42.193Z,14.50
2022-11-08T12:12:41.790Z,14.50
2022-11-08T12:15:39.433Z,14.60
2022-11-08T12:18:58.750Z,14.50
2022-11-08T12:21:54.981Z,14.60
2022-11-08T12:24:51.531Z,14.60
2022-11-08T12:27:54.776Z,14.60
2022-11-08T12:30:55.413Z,14.60
2022-11-08T12:33:58.347Z,14.60
2022-11-08T12:36:54.771Z,14.60
2022-11-08T12:39:47.056Z,14.70
2022-11-08T12:42:53.405Z,14.70
2022-11-08T12:45:57.592Z,14.60
2022-11-08T12:49:22.066Z,14.70
2022-11-08T12:52:22.423Z,14.70
2022-11-08T12:55:16.984Z,14.70
2022-11-08T12:58:19.668Z,14.70
2022-11-08T13:01:12.739Z,14.70
2022-11-08T13:04:29.972Z,14.70
2022-11-08T13:07:31.811Z,14.70
2022-11-08T13:10:30.353Z,14.70
2022-11-08T13:13:31.976Z,14.70
2022-11-08T13:16:22.279Z,14.70
2022-11-08T13:19:30.041Z,14.70
2022-11-08T13:22:47.829Z,14.70
2022-11-08T13:25:39.373Z,14.70
2022-11-08T13:28:42.683Z,14.70
2022-11-08T13:31:43.393Z,14.70
2022-11-08T13:34:46.547Z,14.60
2022-11-08T13:37:56.410Z,14.60
2022-11-08T13:41:00.257Z,14.70
2022-11-08T13:43:50.481Z,14.60
2022-11-08T13:46:49.632Z,14.60
2022-11-08T13:49:40.098Z,14.60
2022-11-08T13:52:46.457Z,14.60
2022-11-08T13:55:48.687Z,14.60
2022-11-08T13:58:40.101Z,14.60
2022-11-08T14:01:59.588Z,14.50
2022-11-08T14:04:49.959Z,14.50
2022-11-08T14:07:44.920Z,14.50
2022-11-08T14:10:41.606Z,14.50
2022-11-08T14:13:37.636Z,14.50
2022-11-08T14:16:32.751Z,14.50
2022-11-08T14:19:24.816Z,14.50
2022-11-08T14:22:18.570Z,14.50
2022-11-08T14:25:15.512Z,14.50
2022-11-08T14:28:05.006Z,14.40
2022-11-08T14:30:54.377Z,14.40
2022-11-08T14:33:43.849Z,14.40
2022-11-08T14:36:33.597Z,14.40
2022-11-08T14:39:27.154Z,14.40
2022-11-08T14:42:22.369Z,14.40
2022-11-08T14:45:15.363Z,14.30
2022-11-08T14:48:05.856Z,14.30
2022-11-08T14:51:00.513Z,14.20
2022-11-08T14:53:50.870Z,14.20
2022-11-08T14:56:43.445Z,14.20
2022-11-08T14:59:32.912Z,14.20
2022-11-08T15:02:21.709Z,14.20
2022-11-08T15:05:30.451Z,14.20
2022-11-08T15:08:24.184Z,14.10
2022-11-08T15:11:28.268Z,14.10
2022-11-08T15:14:21.668Z,14.00
2022-11-08T15:17:34.577Z,14.00
2022-11-08T15:20:23.799Z,14.00
2022-11-08T15:23:43.635Z,14.00
2022-11-08T15:26:35.026Z,13.90
2022-11-08T15:29:26.035Z,13.90
2022-11-08T15:32:17.675Z,13.90
2022-11-08T15:35:08.735Z,13.80
2022-11-08T15:38:02.950Z,13.80
2022-11-08T15:40:52.937Z,13.80
2022-11-08T15:43:42.588Z,13.70
2022-11-08T15:46:38.309Z,13.70
2022-11-08T15:49:29.308Z,13.70
2022-11-08T15:52:21.334Z,13.60
2022-11-08T15:55:14.788Z,13.60
2022-11-08T15:58:04.773Z,13.60
2022-11-08T16:00:53.887Z,13.60
2022-11-08T16:03:44.008Z,13.60
2022-11-08T16:06:32.773Z,13.60
2022-11-08T16:09:21.524Z,13.50
2022-11-08T16:12:12.618Z,13.50
2022-11-08T16:15:01.326Z,13.50
2022-11-08T16:17:50.451Z,13.60
2022-11-08T16:20:41.069Z,13.40
2022-11-08T16:23:29.895Z,13.40
2022-11-08T16:26:20.773Z,13.40
2022-11-08T16:29:17.814Z,13.40
2022-11-08T16:32:07.130Z,13.40
2022-11-08T16:34:55.933Z,13.40
2022-11-08T16:37:47.054Z,13.30
2022-11-08T16:40:35.729Z,13.30
2022-11-08T16:43:24.541Z,13.30
2022-11-08T16:46:14.691Z,13.30
2022-11-08T16:49:05.779Z,13.30
2022-11-08T16:51:54.952Z,13.30
2022-11-08T16:54:44.939Z,13.20
2022-11-08T16:57:35.215Z,13.30
2022-11-08T17:00:24.716Z,13.20
2022-11-08T17:03:18.573Z,13.20
2022-11-08T17:06:08.115Z,13.20
2022-11-08T17:08:57.347Z,13.20
2022-11-08T17:11:47.450Z,13.20
2022-11-08T17:14:36.434Z,13.20
2022-11-08T17:17:25.200Z,13.20
2022-11-08T17:20:16.223Z,13.20
2022-11-08T17:23:04.950Z,13.10
2022-11-08T17:25:54.078Z,13.00
2022-11-08T17:28:44.207Z,13.00
2022-11-08T17:31:32.952Z,12.90
2022-11-08T17:34:21.528Z,12.90
2022-11-08T17:37:10.465Z,12.80
2022-11-08T17:39:59.102Z,12.90
2022-11-08T17:42:47.778Z,12.80
2022-11-08T17:45:38.260Z,12.80
2022-11-08T17:48:26.979Z,12.80
2022-11-08T17:51:15.811Z,12.80
2022-11-08T17:54:04.721Z,12.80
2022-11-08T17:56:53.313Z,12.80
2022-11-08T17:59:44.996Z,12.70
2022-11-08T18:02:35.794Z,12.80
2022-11-08T18:05:24.736Z,12.70
2022-11-08T18:08:13.571Z,12.70
2022-11-08T18:11:02.634Z,12.70
2022-11-08T18:13:51.471Z,12.70
2022-11-08T18:16:40.300Z,12.70
2022-11-08T18:19:30.412Z,12.60
2022-11-08T18:22:19.382Z,12.60
2022-11-08T18:25:08.466Z,12.60
2022-11-08T18:27:57.341Z,12.60
2022-11-08T18:30:47.866Z,12.50
2022-11-08T18:33:38.036Z,12.40
2022-11-08T18:36:30.953Z,12.50
2022-11-08T18:39:20.075Z,12.50
2022-11-08T18:42:08.890Z,12.50
2022-11-08T18:44:58.330Z,12.40
2022-11-08T18:47:47.751Z,12.30
2022-11-08T18:50:37.722Z,12.40
2022-11-08T18:53:28.006Z,12.20
2022-11-08T18:56:17.043Z,12.10
2022-11-08T18:59:06.610Z,12.10
2022-11-08T19:01:55.598Z,12.00
2022-11-08T19:04:44.449Z,12.00
2022-11-08T19:07:33.274Z,11.90
2022-11-08T19:10:23.666Z,11.90
2022-11-08T19:13:12.557Z,11.90
2022-11-08T19:16:03.724Z,11.90
2022-11-08T19:18:52.518Z,11.90
2022-11-08T19:21:43.664Z,11.90
2022-11-08T19:24:32.383Z,11.90
2022-11-08T19:27:25.660Z,11.80
2022-11-08T19:30:15.115Z,11.90
2022-11-08T19:33:04.058Z,11.90
2022-11-08T19:35:53.872Z,11.80
2022-11-08T19:38:43.040Z,11.80
2022-11-08T19:41:31.690Z,11.70
2022-11-08T19:44:22.448Z,11.60
2022-11-08T19:47:11.747Z,11.60
2022-11-08T19:50:01.673Z,11.60
2022-11-08T19:52:51.479Z,11.60
2022-11-08T19:55:40.759Z,11.50
2022-11-08T19:58:30.228Z,11.60
2022-11-08T20:01:22.836Z,11.60
2022-11-08T20:04:14.687Z,11.60
2022-11-08T20:07:04.055Z,11.50
2022-11-08T20:09:55.100Z,11.50
2022-11-08T20:12:44.718Z,11.50
2022-11-08T20:15:34.076Z,11.40
2022-11-08T20:18:24.511Z,11.50
2022-11-08T20:21:15.453Z,11.40
2022-11-08T20:24:04.189Z,11.30
2022-11-08T20:26:53.001Z,11.30
2022-11-08T20:29:41.744Z,11.30
2022-11-08T20:32:30.409Z,11.30
2022-11-08T20:35:23.452Z,11.40
2022-11-08T20:38:12.524Z,11.30
2022-11-08T20:41:01.735Z,11.20
2022-11-08T20:43:50.466Z,11.20
2022-11-08T20:46:40.338Z,11.30
2022-11-08T20:49:29.642Z,11.30
2022-11-08T20:52:22.404Z,11.30
2022-11-08T20:55:11.476Z,11.30
2022-11-08T20:58:00.439Z,11.20
2022-11-08T21:01:04.392Z,11.20
2022-11-08T21:03:53.523Z,11.20
2022-11-08T21:06:42.669Z,11.20
2022-11-08T21:09:48.229Z,11.10
2022-11-08T21:12:38.344Z,11.20
2022-11-08T21:15:27.635Z,11.10
2022-11-08T21:18:18.283Z,11.20
2022-11-08T21:21:09.829Z,11.20
2022-11-08T21:23:58.564Z,11.10
2022-11-08T21:26:48.680Z,11.00
2022-11-08T21:29:37.441Z,11.10
2022-11-08T21:32:26.308Z,11.10
2022-11-08T21:35:15.152Z,11.10
2022-11-08T21:38:04.540Z,11.00
2022-11-08T21:40:53.817Z,11.00
2022-11-08T21:43:45.325Z,11.00
2022-11-08T21:46:34.909Z,10.90
2022-11-08T21:49:23.949Z,10.90
2022-11-08T21:52:12.590Z,10.90
2022-11-08T21:55:01.251Z,11.00
2022-11-08T21:57:50.181Z,11.00
2022-11-08T22:00:40.934Z,10.90
2022-11-08T22:03:29.666Z,10.90
2022-11-08T22:06:18.370Z,10.90
2022-11-08T22:09:07.154Z,10.80
2022-11-08T22:11:55.815Z,10.80
2022-11-08T22:14:44.477Z,10.80
2022-11-08T22:17:34.758Z,10.80
2022-11-08T22:20:23.535Z,10.80
2022-11-08T22:23:12.186Z,10.70
2022-11-08T22:26:00.882Z,10.70
2022-11-08T22:28:49.590Z,10.80
2022-11-08T22:31:38.388Z,10.80
2022-11-08T22:34:28.439Z,10.80
2022-11-08T22:37:17.503Z,10.70
2022-11-08T22:40:07.466Z,10.80
2022-11-08T22:42:56.305Z,10.80
2022-11-08T22:45:45.746Z,10.70
2022-11-08T22:48:34.370Z,10.70
2022-11-08T22:51:24.622Z,10.70
2022-11-08T22:54:13.473Z,10.70
2022-11-08T22:57:04.242Z,10.50
2022-11-08T22:59:52.976Z,10.40
2022-11-08T23:02:41.910Z,10.40
2022-11-08T23:05:31.766Z,10.40
2022-11-08T23:08:22.288Z,10.40
2022-11-08T23:11:29.001Z,10.30
2022-11-08T23:14:37.367Z,10.20
2022-11-08T23:17:26.537Z,10.20
2022-11-08T23:20:32.863Z,10.20
2022-11-08T23:23:40.360Z,10.30
2022-11-08T23:26:46.233Z,10.30
2022-11-08T23:29:52.279Z,10.30
2022-11-08T23:32:44.035Z,10.20
2022-11-08T23:35:32.831Z,10.20
2022-11-08T23:38:22.895Z,10.20
2022-11-08T23:41:29.506Z,10.20
2022-11-08T23:44:27.678Z,10.20
2022-11-08T23:47:16.443Z,10.30
2022-11-08T23:50:05.447Z,10.20
2022-11-08T23:52:53.930Z,10.20
2022-11-08T23:55:44.665Z,10.10
2022-11-08T23:58:33.304Z,10.00
